Latest Weather Observations for Bombala AWS

IDN60801

Issued at 9:22 pm EST Sunday 16 June 2019 (issued every 10 minutes, with the page automatically refreshed every 10 minutes)

About weather observations | Map of weather stations | Latest weather observations for NSW | Other Formats
Station Details ID: 070328 Name: BOMBALA AWS Lat: -37.00 Lon: 149.23 Height: 760.5 m
Data from the previous 72 hours. | See also: Recent months at Bombala AWS
Date/Time
EST
Temp
°C
App
Temp
°C
Dew
Point
°C
Rel
Hum
%
Delta-T
°C
Wind Press
QNH
hPa
Press
MSL
hPa
Rain since
9am
mm
Dir  Spd
km/h
Gust
km/h
Spd
kts
Gust
kts
16/09:00pm 5.2 3.0 5.2 100 0.0 S 6 7 3 4 1023.0 1024.2 0.0
16/08:30pm 2.4 -0.4 2.3 99 0.0 SSE 6 7 3 4 1023.1 1024.3 0.0
16/08:00pm 2.1 -0.7 2.0 99 0.0 E 6 6 3 3 1023.0 1024.2 0.0
16/07:30pm 4.4 2.8 4.3 99 0.0 S 2 6 1 3 1022.7 1023.8 0.0
16/07:00pm 4.1 2.7 3.4 95 0.3 CALM 0 0 0 0 1022.3 1023.5 0.0
16/06:30pm 4.4 2.1 2.8 89 0.7 S 4 9 2 5 1022.1 1023.3 0.0
16/06:00pm 4.8 2.0 2.0 82 1.2 SSE 6 7 3 4 1022.0 1023.2 0.0
16/05:30pm 6.7 5.1 2.2 73 1.9 CALM 0 0 0 0 1021.8 1023.0 0.0
16/05:00pm 7.7 6.1 2.6 70 2.2 CALM 0 0 0 0 1021.4 1022.5 0.0
16/04:30pm 8.6 6.8 1.5 61 3.1 CALM 0 0 0 0 1021.5 1022.6 0.0
16/04:00pm 10.3 8.8 2.9 60 3.3 CALM 0 0 0 0 1021.5 1022.6 0.0
16/03:30pm 10.6 8.6 2.2 56 3.7 WNW 2 6 1 3 1021.3 1022.4 0.0
16/03:00pm 10.2 7.6 3.0 61 3.2 W 6 9 3 5 1021.2 1022.3 0.0
16/02:30pm 10.5 8.5 4.4 66 2.9 W 4 7 2 4 1021.2 1022.3 0.0
16/02:00pm 10.4 8.7 4.1 65 2.9 NW 2 6 1 3 1021.2 1022.3 0.0
16/01:30pm 9.2 6.8 4.4 72 2.2 NNW 6 9 3 5 1021.2 1022.3 0.0
16/01:00pm 8.3 6.1 5.1 80 1.5 NW 6 9 3 5 1021.6 1022.7 0.0
16/12:30pm 6.5 4.7 5.6 94 0.4 N 4 6 2 3 1022.2 1023.4 0.0
16/12:00pm 5.7 3.6 5.7 100 0.0 N 6 6 3 3 1022.7 1023.8 0.0
16/11:30am 3.7 1.0 3.7 100 0.0 N 7 11 4 6 1023.2 1024.4 0.0
16/11:00am 3.4 -0.1 3.4 100 0.0 NNW 11 15 6 8 1023.4 1024.6 0.0
16/10:30am 2.6 -1.1 2.6 100 0.0 NNW 11 13 6 7 1023.6 1024.8 0.0
16/10:00am 2.0 -1.4 2.0 100 0.0 NNW 9 11 5 6 1023.6 1024.8 0.0
16/09:30am 0.8 -2.4 0.8 100 0.0 NNW 7 7 4 4 1023.5 1024.7 0.0
16/09:00am -0.4 -3.6 -0.4 100 0.0 N 6 7 3 4 1023.3 1024.5 0.0
16/08:30am -0.9 -3.0 -1.0 99 0.0 CALM 0 0 0 0 1022.9 1024.1 0.0
16/08:00am -1.0 -3.9 -1.1 99 0.0 NNW 4 4 2 2 1022.9 1024.1 0.0
16/07:30am -1.3 -4.6 -1.4 99 0.0 NNW 6 6 3 3 1022.8 1024.0 0.0
16/07:00am -0.9 -3.0 -1.0 99 0.0 CALM 0 0 0 0 1022.2 1023.4 0.0
16/06:30am -0.6 -2.7 -0.7 99 0.0 CALM 0 0 0 0 1022.0 1023.2 0.0
16/06:00am -0.5 -2.6 -0.6 99 0.0 CALM 0 0 0 0 1022.0 1023.2 0.0
16/05:30am -0.7 -2.8 -0.8 99 0.0 CALM 0 2 0 1 1021.6 1022.7 0.0
16/05:00am 0.1 -2.6 0.0 99 0.0 NNW 4 4 2 2 1021.5 1022.6 0.0
16/04:30am -0.4 -2.5 -0.5 99 0.0 CALM 0 0 0 0 1021.5 1022.6 0.0
16/04:00am -0.1 -2.1 -0.2 99 0.0 CALM 0 0 0 0 1021.5 1022.6 0.0
16/03:30am 0.3 -2.0 0.2 99 0.0 NNW 2 4 1 2 1021.5 1022.6 0.0
16/03:00am 1.1 -1.5 1.1 100 0.0 WSW 4 6 2 3 1021.7 1022.9 0.0
16/02:30am 0.3 -2.4 0.2 99 0.0 WSW 4 6 2 3 1021.9 1023.1 0.0
16/02:00am 0.5 -2.2 0.4 99 0.0 ESE 4 9 2 5 1021.8 1023.0 0.0
16/01:30am 0.1 -2.6 0.0 99 0.0 ESE 4 4 2 2 1022.2 1023.4 0.0
16/01:00am 1.3 -0.9 1.3 100 0.0 S 2 6 1 3 1022.3 1023.5 0.0
16/12:30am 1.2 -1.9 1.2 100 0.0 SW 7 9 4 5 1022.1 1023.3 0.0
16/12:00am 0.6 -1.3 0.5 99 0.0 CALM 0 0 0 0 1022.0 1023.2 0.0
 
Date/Time
EST
Temp
°C
App
Temp
°C
Dew
Point
°C
Rel
Hum
%
Delta-T
°C
Wind Press
QNH
hPa
Press
MSL
hPa
Rain since
9am
mm
Dir  Spd
km/h
Gust
km/h
Spd
kts
Gust
kts
15/11:30pm 0.3 -2.4 0.2 99 0.0 NNE 4 7 2 4 1022.6 1023.7 0.0
15/11:00pm 0.7 -1.2 0.6 99 0.0 CALM 0 0 0 0 1022.6 1023.7 0.0
15/10:30pm 1.2 -0.6 1.1 99 0.0 CALM 0 0 0 0 1022.6 1023.7 0.0
15/10:00pm 1.6 -0.2 1.5 99 0.0 CALM 0 0 0 0 1022.6 1023.7 0.0
15/09:30pm 1.4 -0.4 1.3 99 0.0 CALM 0 0 0 0 1022.7 1023.8 0.0
15/09:00pm 1.0 -1.6 0.9 99 0.0 ESE 4 6 2 3 1022.6 1023.7 0.0
15/08:30pm 1.5 -0.7 0.9 96 0.2 ESE 2 4 1 2 1022.3 1023.5 0.0
15/08:00pm 2.5 0.4 1.9 96 0.2 ESE 2 4 1 2 1022.2 1023.4 0.0
15/07:30pm 4.4 3.0 3.8 96 0.3 CALM 0 0 0 0 1022.1 1023.3 0.0
15/07:00pm 4.4 3.0 3.4 93 0.4 CALM 0 2 0 1 1021.8 1023.0 0.0
15/06:30pm 5.1 3.0 3.9 92 0.5 ESE 4 6 2 3 1021.6 1022.7 0.0
15/06:00pm 4.3 1.6 2.7 89 0.7 SE 6 7 3 4 1021.3 1022.4 0.0
15/05:30pm 5.8 2.7 3.8 87 0.9 SSE 9 9 5 5 1020.8 1022.0 0.0
15/05:00pm 6.6 3.4 3.2 79 1.5 SE 9 11 5 6 1020.5 1021.7 0.0
15/04:30pm 8.2 5.7 3.9 74 2.0 SE 6 7 3 4 1020.5 1021.7 0.0
15/04:00pm 9.4 6.7 3.6 67 2.6 SSE 7 11 4 6 1020.4 1021.5 0.0
15/03:30pm 9.7 7.2 3.7 66 2.7 WSW 6 7 3 4 1020.3 1021.4 0.0
15/03:00pm 9.4 6.2 2.9 64 2.9 WSW 9 13 5 7 1020.3 1021.4 0.0
15/02:30pm 9.8 5.7 2.4 60 3.3 SW 13 19 7 10 1020.2 1021.3 0.0
15/02:00pm 11.0 7.4 3.1 58 3.6 SW 11 19 6 10 1020.0 1021.1 0.0
15/01:30pm 11.4 7.1 3.2 57 3.8 WSW 15 20 8 11 1020.2 1021.3 0.0
15/01:00pm 11.5 8.5 4.0 60 3.5 SW 9 19 5 10 1020.3 1021.4 0.0
15/12:30pm 10.4 6.5 3.4 62 3.2 WSW 13 19 7 10 1020.7 1021.9 0.0
15/12:00pm 9.8 6.3 3.3 64 2.9 WSW 11 20 6 11 1020.8 1022.0 0.0
15/11:30am 9.9 5.8 4.1 67 2.7 W 15 19 8 10 1021.2 1022.3 0.0
15/11:00am 8.8 6.4 4.4 74 2.0 N 6 7 3 4 1021.5 1022.6 0.0
15/10:30am 7.5 4.5 3.9 78 1.6 N 9 11 5 6 1021.7 1022.9 0.0
15/10:00am 5.9 3.1 3.2 83 1.2 N 7 11 4 6 1021.8 1023.0 0.0
15/09:30am 4.2 1.3 2.4 88 0.8 N 7 9 4 5 1021.5 1022.6 0.0
15/09:00am 2.8 1.0 1.0 88 0.7 CALM 0 0 0 0 1021.3 1022.4 0.2
15/08:30am 1.3 -1.0 0.1 92 0.5 NNW 2 6 1 3 1021.2 1022.3 0.2
15/08:00am 1.1 -0.8 0.5 96 0.2 CALM 0 4 0 2 1020.7 1021.9 0.0
15/07:30am 0.3 -1.7 -0.1 97 0.2 CALM 0 0 0 0 1020.5 1021.7 0.0
15/07:00am 0.1 -2.0 -0.6 95 0.3 CALM 0 0 0 0 1020.3 1021.4 0.0
15/06:30am 0.5 -2.8 0.4 99 0.0 NNW 7 9 4 5 1019.9 1021.0 0.0
15/06:00am 0.2 -2.6 -0.1 98 0.1 N 4 6 2 3 1019.8 1020.9 0.0
15/05:30am -0.5 -3.9 -0.9 97 0.1 N 7 11 4 6 1019.3 1020.4 0.0
15/05:00am 0.1 -2.3 -0.5 96 0.2 WSW 2 4 1 2 1019.1 1020.2 0.0
15/04:30am 0.7 -2.0 0.0 95 0.3 WSW 4 7 2 4 1018.9 1020.0 0.0
15/04:00am 0.7 -2.5 -0.2 94 0.3 W 6 7 3 4 1018.8 1019.9 0.0
15/03:30am 1.2 -1.8 0.9 98 0.1 WSW 6 7 3 4 1018.7 1019.8 0.0
15/03:00am 0.6 -2.5 0.3 98 0.1 NW 6 7 3 4 1018.8 1019.9 0.0
15/02:30am -0.3 -3.2 -1.0 95 0.2 NW 4 6 2 3 1018.7 1019.8 0.0
15/02:00am 0.8 -2.3 0.4 97 0.2 NW 6 6 3 3 1018.8 1019.9 0.0
15/01:30am 0.6 -2.6 -0.3 94 0.3 NNW 6 7 3 4 1019.0 1020.1 0.0
15/01:00am 3.0 1.1 2.7 98 0.1 ENE 2 4 1 2 1019.0 1020.1 0.0
15/12:30am 1.6 -1.3 1.5 99 0.0 ENE 6 7 3 4 1019.1 1020.2 0.0
15/12:00am -0.3 -3.2 -1.0 95 0.2 NE 4 6 2 3 1019.2 1020.3 0.0
 
Date/Time
EST
Temp
°C
App
Temp
°C
Dew
Point
°C
Rel
Hum
%
Delta-T
°C
Wind Press
QNH
hPa
Press
MSL
hPa
Rain since
9am
mm
Dir  Spd
km/h
Gust
km/h
Spd
kts
Gust
kts
14/11:30pm 1.6 -2.0 0.6 93 0.4 NNW 9 11 5 6 1019.3 1020.4 0.0
14/11:00pm 1.9 -0.7 1.0 94 0.4 N 4 6 2 3 1019.6 1020.7 0.0
14/10:30pm 3.0 1.3 1.8 92 0.5 CALM 0 0 0 0 1019.7 1020.8 0.0
14/10:00pm 3.6 1.9 1.8 88 0.7 CALM 0 2 0 1 1019.8 1020.9 0.0
14/09:30pm 4.0 1.6 2.4 89 0.7 WNW 4 4 2 2 1019.7 1020.8 0.0
14/09:00pm 2.9 -0.3 1.0 87 0.8 WNW 7 9 4 5 1019.6 1020.7 0.0
14/08:30pm 4.5 1.7 1.9 83 1.1 NNW 6 9 3 5 1019.4 1020.6 0.0
14/08:00pm 5.0 2.3 2.9 86 0.9 NNW 6 7 3 4 1019.6 1020.7 0.0
14/07:30pm 4.2 1.4 2.1 86 0.9 NNW 6 7 3 4 1019.3 1020.4 0.0
14/07:00pm 5.0 2.5 1.8 80 1.3 NNW 4 6 2 3 1019.1 1020.2 0.0
14/06:30pm 6.5 4.2 2.9 78 1.6 WNW 4 7 2 4 1018.8 1019.9 0.0
14/06:00pm 6.3 4.0 2.8 78 1.5 WNW 4 6 2 3 1018.4 1019.5 0.0
14/05:30pm 6.8 3.9 2.5 74 1.9 NW 7 7 4 4 1017.9 1019.0 0.0
14/05:00pm 8.3 5.1 3.2 70 2.3 NW 9 9 5 5 1017.6 1018.7 0.0
14/04:30pm 9.5 6.7 3.0 64 2.9 WNW 7 11 4 6 1017.7 1018.8 0.0
14/04:00pm 11.7 8.3 4.0 59 3.6 NNW 11 15 6 8 1017.5 1018.6 0.0
14/03:30pm 11.4 6.7 2.9 56 3.9 WNW 17 20 9 11 1017.5 1018.6 0.0
14/03:00pm 11.0 6.7 3.1 58 3.6 WNW 15 20 8 11 1017.4 1018.5 0.0
14/02:30pm 10.9 6.3 3.5 60 3.4 W 17 26 9 14 1017.4 1018.5 0.0
14/02:00pm 11.8 9.3 5.0 63 3.3 WSW 7 19 4 10 1017.4 1018.5 0.0
14/01:30pm 10.3 6.1 3.8 64 3.0 WNW 15 19 8 10 1017.8 1018.9 0.0
14/01:00pm 11.0 7.6 4.0 62 3.3 WNW 11 15 6 8 1017.9 1019.0 0.0
14/12:30pm 9.9 6.9 4.1 67 2.7 NW 9 19 5 10 1018.0 1019.1 0.0
14/12:00pm 9.0 5.3 4.2 72 2.2 NNW 13 15 7 8 1018.5 1019.6 0.0
14/11:30am 7.6 4.1 3.6 76 1.8 NNW 11 15 6 8 1018.8 1019.9 0.0
14/11:00am 6.6 4.4 3.2 79 1.5 N 4 7 2 4 1019.2 1020.3 0.0
14/10:30am 5.2 2.4 2.0 80 1.3 N 6 9 3 5 1019.6 1020.7 0.0
14/10:00am 4.1 1.3 2.0 86 0.9 N 6 9 3 5 1019.6 1020.7 0.0
14/09:30am 3.2 0.2 1.7 90 0.6 NNW 7 9 4 5 1019.6 1020.7 0.0
14/09:00am 1.4 -1.9 0.2 92 0.5 NNW 7 7 4 4 1019.3 1020.4 0.0
14/08:30am 0.7 -3.1 -0.4 92 0.4 NNW 9 11 5 6 1019.2 1020.3 0.0
14/08:00am 0.3 -3.9 -0.8 92 0.4 NNW 11 11 6 6 1018.9 1020.0 0.0
14/07:30am 0.1 -3.8 -1.2 91 0.5 NW 9 11 5 6 1018.8 1019.9 0.0
14/07:00am 0.7 -2.5 -0.7 90 0.5 N 6 7 3 4 1018.7 1019.8 0.0
14/06:30am 0.5 -2.0 -0.9 90 0.5 N 2 4 1 2 1018.5 1019.6 0.0
14/06:00am 0.5 -2.8 -0.9 90 0.5 N 6 6 3 3 1018.0 1019.1 0.0
14/05:30am 0.2 -3.1 -1.5 88 0.6 N 6 7 3 4 1018.0 1019.1 0.0
14/05:00am 0.9 -2.0 -1.3 85 0.8 N 4 6 2 3 1017.6 1018.7 0.0
14/04:30am 1.4 -0.6 -0.4 88 0.7 CALM 0 0 0 0 1017.6 1018.7 0.0
14/04:00am 0.3 -1.9 -1.9 85 0.8 CALM 0 0 0 0 1017.2 1018.3 0.0
14/03:30am 1.1 -2.2 -1.0 86 0.8 N 6 7 3 4 1017.6 1018.7 0.0
14/03:00am 1.3 -2.5 -0.8 86 0.8 NW 9 11 5 6 1017.7 1018.8 0.0
14/02:30am 1.2 -2.6 -1.0 85 0.8 NNW 9 11 5 6 1017.5 1018.6 0.0
14/02:00am 1.6 -2.6 -1.1 82 1.0 NNW 11 13 6 7 1017.6 1018.7 0.0
14/01:30am 2.1 -1.7 -0.5 83 1.0 NNW 9 11 5 6 1017.8 1018.9 0.0
14/01:00am 2.7 -1.1 -0.4 80 1.2 NW 9 11 5 6 1017.9 1019.0 0.0
14/12:30am 2.8 -0.9 -0.1 81 1.1 NW 9 9 5 5 1017.7 1018.8 0.0
14/12:00am 3.0 -1.5 -0.5 78 1.4 NW 13 17 7 9 1017.5 1018.6 0.0
 
Date/Time
EST
Temp
°C
App
Temp
°C
Dew
Point
°C
Rel
Hum
%
Delta-T
°C
Wind Press
QNH
hPa
Press
MSL
hPa
Rain since
9am
mm
Dir  Spd
km/h
Gust
km/h
Spd
kts
Gust
kts
13/11:30pm 4.2 -0.2 0.2 75 1.6 WNW 13 20 7 11 1017.8 1018.9 0.0
13/11:00pm 5.2 0.8 0.4 71 1.9 WNW 13 17 7 9 1017.8 1018.9 0.0
13/10:30pm 5.4 1.4 0.8 72 1.9 WNW 11 19 6 10 1017.9 1019.0 0.0
13/10:00pm 4.9 -0.6 0.9 75 1.6 WNW 19 20 10 11 1017.9 1019.0 0.0
13/09:30pm 3.0 -1.5 -0.5 78 1.4 WNW 13 15 7 8 1017.9 1019.0 0.0

Other formats

Comma delimited format used in spreadsheet applications
http://www.bom.gov.au/fwo/IDN60801/IDN60801.94929.axf

JavaScript Object Notation format (JSON) in row-major order
http://www.bom.gov.au/fwo/IDN60801/IDN60801.94929.json

Data quality

Most of these data are generated automatically and are frequently updated. Quality checks on data are not normally performed. It is possible for incorrect values to appear. Refer to information at About Latest Weather Observations and please check the disclaimer before using these data.